<?xml version="1.0" encoding="UTF-8" standalone="no" ?>
<gpx xmlns="http://www.topografix.com/GPX/1/1" xmlns:xsi="http://www.w3.org/2001/XMLSchema-instance" xsi:schemaLocation="http://www.topografix.com/GPX/1/1 http://www.topografix.com/GPX/1/1/gpx.xsd" version="1.1" creator="VisuGPX - https://www.visugpx.com">
  <metadata>
    <name>Châtel Larfeuil 12km</name>
    <desc><![CDATA[Châtel Censoir, Larfeuil
Dist 12km
Parking mairie Châtel ]]></desc>
  </metadata>
  <trk>
    <name><![CDATA[2021-10-06 16:05:56]]></name>
    <extensions>
      <line xmlns="http://www.topografix.com/GPX/gpx_style/0/2">
        <color>0000FF</color>
        <width>4</width>
      </line>
    </extensions>
    <trkseg>
      <trkpt lat="47.5296" lon="3.62832">
        <ele>179.2</ele>
        <time>2021-10-06T11:43:05Z</time>
      </trkpt>
      <trkpt lat="47.52959" lon="3.6283">
        <ele>179.66</ele>
        <time>2021-10-06T11:43:06Z</time>
      </trkpt>
      <trkpt lat="47.52959" lon="3.62829">
        <ele>179.97</ele>
        <time>2021-10-06T11:43:07Z</time>
      </trkpt>
      <trkpt lat="47.52958" lon="3.62827">
        <ele>180.09</ele>
        <time>2021-10-06T11:43:08Z</time>
      </trkpt>
      <trkpt lat="47.52957" lon="3.62821">
        <ele>178.32</ele>
        <time>2021-10-06T11:43:11Z</time>
      </trkpt>
      <trkpt lat="47.52944" lon="3.62777">
        <ele>179.13</ele>
        <time>2021-10-06T11:43:36Z</time>
      </trkpt>
      <trkpt lat="47.52929" lon="3.62734">
        <ele>179.45</ele>
        <time>2021-10-06T11:44:01Z</time>
      </trkpt>
      <trkpt lat="47.52909" lon="3.6269">
        <ele>179.41</ele>
        <time>2021-10-06T11:44:29Z</time>
      </trkpt>
      <trkpt lat="47.52891" lon="3.6265">
        <ele>179.15</ele>
        <time>2021-10-06T11:44:55Z</time>
      </trkpt>
      <trkpt lat="47.5287" lon="3.62606">
        <ele>178.58</ele>
        <time>2021-10-06T11:45:24Z</time>
      </trkpt>
      <trkpt lat="47.52852" lon="3.62561">
        <ele>177.27</ele>
        <time>2021-10-06T11:45:52Z</time>
      </trkpt>
      <trkpt lat="47.52823" lon="3.62525">
        <ele>174.87</ele>
        <time>2021-10-06T11:46:21Z</time>
      </trkpt>
      <trkpt lat="47.52794" lon="3.62496">
        <ele>172.27</ele>
        <time>2021-10-06T11:46:47Z</time>
      </trkpt>
      <trkpt lat="47.52763" lon="3.62458">
        <ele>170.4</ele>
        <time>2021-10-06T11:47:16Z</time>
      </trkpt>
      <trkpt lat="47.52733" lon="3.62411">
        <ele>167.84</ele>
        <time>2021-10-06T11:47:48Z</time>
      </trkpt>
      <trkpt lat="47.52705" lon="3.62359">
        <ele>166.61</ele>
        <time>2021-10-06T11:48:22Z</time>
      </trkpt>
      <trkpt lat="47.52678" lon="3.62312">
        <ele>165.49</ele>
        <time>2021-10-06T11:48:53Z</time>
      </trkpt>
      <trkpt lat="47.52649" lon="3.6228">
        <ele>163.38</ele>
        <time>2021-10-06T11:49:21Z</time>
      </trkpt>
      <trkpt lat="47.52622" lon="3.6227">
        <ele>165.41</ele>
        <time>2021-10-06T11:49:43Z</time>
      </trkpt>
      <trkpt lat="47.52582" lon="3.62262">
        <ele>167.71</ele>
        <time>2021-10-06T11:50:15Z</time>
      </trkpt>
      <trkpt lat="47.52544" lon="3.62252">
        <ele>168.88</ele>
        <time>2021-10-06T11:50:46Z</time>
      </trkpt>
      <trkpt lat="47.5251" lon="3.62244">
        <ele>170.36</ele>
        <time>2021-10-06T11:51:13Z</time>
      </trkpt>
      <trkpt lat="47.52479" lon="3.62237">
        <ele>170.4</ele>
        <time>2021-10-06T11:51:38Z</time>
      </trkpt>
      <trkpt lat="47.52455" lon="3.62229">
        <ele>171.83</ele>
        <time>2021-10-06T11:51:58Z</time>
      </trkpt>
      <trkpt lat="47.52454" lon="3.62228">
        <ele>171.87</ele>
        <time>2021-10-06T11:51:59Z</time>
      </trkpt>
      <trkpt lat="47.52461" lon="3.62197">
        <ele>171.2</ele>
        <time>2021-10-06T11:52:17Z</time>
      </trkpt>
      <trkpt lat="47.52487" lon="3.62165">
        <ele>171.53</ele>
        <time>2021-10-06T11:52:44Z</time>
      </trkpt>
      <trkpt lat="47.52513" lon="3.62148">
        <ele>172.7</ele>
        <time>2021-10-06T11:53:07Z</time>
      </trkpt>
      <trkpt lat="47.5252" lon="3.62145">
        <ele>172.9</ele>
        <time>2021-10-06T11:53:13Z</time>
      </trkpt>
      <trkpt lat="47.52521" lon="3.62144">
        <ele>172.97</ele>
        <time>2021-10-06T11:53:14Z</time>
      </trkpt>
      <trkpt lat="47.52542" lon="3.62117">
        <ele>174.89</ele>
        <time>2021-10-06T11:53:37Z</time>
      </trkpt>
      <trkpt lat="47.52559" lon="3.62072">
        <ele>177.9</ele>
        <time>2021-10-06T11:54:06Z</time>
      </trkpt>
      <trkpt lat="47.52572" lon="3.62028">
        <ele>180.96</ele>
        <time>2021-10-06T11:54:34Z</time>
      </trkpt>
      <trkpt lat="47.52581" lon="3.61993">
        <ele>183.71</ele>
        <time>2021-10-06T11:54:56Z</time>
      </trkpt>
      <trkpt lat="47.5259" lon="3.61948">
        <ele>184.97</ele>
        <time>2021-10-06T11:55:22Z</time>
      </trkpt>
      <trkpt lat="47.52599" lon="3.61909">
        <ele>186.43</ele>
        <time>2021-10-06T11:55:45Z</time>
      </trkpt>
      <trkpt lat="47.52604" lon="3.61865">
        <ele>187.21</ele>
        <time>2021-10-06T11:56:09Z</time>
      </trkpt>
      <trkpt lat="47.52599" lon="3.6182">
        <ele>187.37</ele>
        <time>2021-10-06T11:56:32Z</time>
      </trkpt>
      <trkpt lat="47.52586" lon="3.61777">
        <ele>188.23</ele>
        <time>2021-10-06T11:56:57Z</time>
      </trkpt>
      <trkpt lat="47.52575" lon="3.61737">
        <ele>188.28</ele>
        <time>2021-10-06T11:57:20Z</time>
      </trkpt>
      <trkpt lat="47.52562" lon="3.61697">
        <ele>187.76</ele>
        <time>2021-10-06T11:57:42Z</time>
      </trkpt>
      <trkpt lat="47.52549" lon="3.61658">
        <ele>187.1</ele>
        <time>2021-10-06T11:58:04Z</time>
      </trkpt>
      <trkpt lat="47.52536" lon="3.61624">
        <ele>185.91</ele>
        <time>2021-10-06T11:58:24Z</time>
      </trkpt>
      <trkpt lat="47.52521" lon="3.61579">
        <ele>184.73</ele>
        <time>2021-10-06T11:58:50Z</time>
      </trkpt>
      <trkpt lat="47.52509" lon="3.61533">
        <ele>184.09</ele>
        <time>2021-10-06T11:59:15Z</time>
      </trkpt>
      <trkpt lat="47.525" lon="3.61498">
        <ele>183.16</ele>
        <time>2021-10-06T11:59:34Z</time>
      </trkpt>
      <trkpt lat="47.52487" lon="3.61449">
        <ele>182.39</ele>
        <time>2021-10-06T12:00:01Z</time>
      </trkpt>
      <trkpt lat="47.52482" lon="3.61412">
        <ele>181.88</ele>
        <time>2021-10-06T12:00:21Z</time>
      </trkpt>
      <trkpt lat="47.52475" lon="3.61368">
        <ele>180.9</ele>
        <time>2021-10-06T12:00:45Z</time>
      </trkpt>
      <trkpt lat="47.52471" lon="3.6133">
        <ele>180.03</ele>
        <time>2021-10-06T12:01:05Z</time>
      </trkpt>
      <trkpt lat="47.52466" lon="3.61283">
        <ele>178.58</ele>
        <time>2021-10-06T12:01:29Z</time>
      </trkpt>
      <trkpt lat="47.52459" lon="3.61236">
        <ele>177.88</ele>
        <time>2021-10-06T12:01:53Z</time>
      </trkpt>
      <trkpt lat="47.52453" lon="3.61191">
        <ele>176.86</ele>
        <time>2021-10-06T12:02:18Z</time>
      </trkpt>
      <trkpt lat="47.52449" lon="3.61149">
        <ele>176.61</ele>
        <time>2021-10-06T12:02:41Z</time>
      </trkpt>
      <trkpt lat="47.52439" lon="3.61106">
        <ele>176.08</ele>
        <time>2021-10-06T12:03:03Z</time>
      </trkpt>
      <trkpt lat="47.52435" lon="3.61063">
        <ele>175.66</ele>
        <time>2021-10-06T12:03:26Z</time>
      </trkpt>
      <trkpt lat="47.52429" lon="3.61026">
        <ele>175.53</ele>
        <time>2021-10-06T12:03:46Z</time>
      </trkpt>
      <trkpt lat="47.52425" lon="3.60987">
        <ele>175.65</ele>
        <time>2021-10-06T12:04:08Z</time>
      </trkpt>
      <trkpt lat="47.52422" lon="3.60949">
        <ele>175.47</ele>
        <time>2021-10-06T12:04:27Z</time>
      </trkpt>
      <trkpt lat="47.52416" lon="3.60903">
        <ele>175.39</ele>
        <time>2021-10-06T12:04:51Z</time>
      </trkpt>
      <trkpt lat="47.5241" lon="3.6085">
        <ele>174.05</ele>
        <time>2021-10-06T12:05:18Z</time>
      </trkpt>
      <trkpt lat="47.52402" lon="3.60814">
        <ele>172.44</ele>
        <time>2021-10-06T12:05:39Z</time>
      </trkpt>
      <trkpt lat="47.52395" lon="3.60782">
        <ele>172.49</ele>
        <time>2021-10-06T12:05:57Z</time>
      </trkpt>
      <trkpt lat="47.52387" lon="3.60748">
        <ele>169.34</ele>
        <time>2021-10-06T12:06:16Z</time>
      </trkpt>
      <trkpt lat="47.52377" lon="3.6071">
        <ele>166.28</ele>
        <time>2021-10-06T12:06:37Z</time>
      </trkpt>
      <trkpt lat="47.52367" lon="3.60674">
        <ele>163.18</ele>
        <time>2021-10-06T12:06:57Z</time>
      </trkpt>
      <trkpt lat="47.52359" lon="3.60651">
        <ele>159.97</ele>
        <time>2021-10-06T12:07:11Z</time>
      </trkpt>
      <trkpt lat="47.52344" lon="3.60621">
        <ele>157.54</ele>
        <time>2021-10-06T12:07:32Z</time>
      </trkpt>
      <trkpt lat="47.52327" lon="3.60586">
        <ele>155.02</ele>
        <time>2021-10-06T12:07:54Z</time>
      </trkpt>
      <trkpt lat="47.52309" lon="3.60557">
        <ele>153.63</ele>
        <time>2021-10-06T12:08:14Z</time>
      </trkpt>
      <trkpt lat="47.52287" lon="3.60531">
        <ele>152.07</ele>
        <time>2021-10-06T12:08:37Z</time>
      </trkpt>
      <trkpt lat="47.52267" lon="3.60514">
        <ele>150.45</ele>
        <time>2021-10-06T12:08:55Z</time>
      </trkpt>
      <trkpt lat="47.52249" lon="3.60496">
        <ele>149.14</ele>
        <time>2021-10-06T12:09:12Z</time>
      </trkpt>
      <trkpt lat="47.52227" lon="3.60474">
        <ele>147.16</ele>
        <time>2021-10-06T12:09:33Z</time>
      </trkpt>
      <trkpt lat="47.52217" lon="3.60468">
        <ele>146.01</ele>
        <time>2021-10-06T12:09:42Z</time>
      </trkpt>
      <trkpt lat="47.52215" lon="3.60465">
        <ele>145.73</ele>
        <time>2021-10-06T12:09:45Z</time>
      </trkpt>
      <trkpt lat="47.52209" lon="3.60461">
        <ele>145.04</ele>
        <time>2021-10-06T12:09:51Z</time>
      </trkpt>
      <trkpt lat="47.52207" lon="3.6046">
        <ele>144.98</ele>
        <time>2021-10-06T12:09:52Z</time>
      </trkpt>
      <trkpt lat="47.52206" lon="3.60459">
        <ele>144.88</ele>
        <time>2021-10-06T12:09:53Z</time>
      </trkpt>
      <trkpt lat="47.52196" lon="3.60453">
        <ele>143.74</ele>
        <time>2021-10-06T12:10:04Z</time>
      </trkpt>
      <trkpt lat="47.52195" lon="3.60452">
        <ele>143.65</ele>
        <time>2021-10-06T12:10:05Z</time>
      </trkpt>
      <trkpt lat="47.52193" lon="3.60451">
        <ele>143.58</ele>
        <time>2021-10-06T12:10:06Z</time>
      </trkpt>
      <trkpt lat="47.52192" lon="3.60451">
        <ele>143.41</ele>
        <time>2021-10-06T12:10:07Z</time>
      </trkpt>
      <trkpt lat="47.52191" lon="3.60451">
        <ele>143.3</ele>
        <time>2021-10-06T12:10:08Z</time>
      </trkpt>
      <trkpt lat="47.5219" lon="3.6045">
        <ele>143.18</ele>
        <time>2021-10-06T12:10:09Z</time>
      </trkpt>
      <trkpt lat="47.52166" lon="3.60435">
        <ele>140.29</ele>
        <time>2021-10-06T12:10:29Z</time>
      </trkpt>
      <trkpt lat="47.52162" lon="3.60441">
        <ele>139.77</ele>
        <time>2021-10-06T12:10:35Z</time>
      </trkpt>
      <trkpt lat="47.52151" lon="3.6046">
        <ele>139.99</ele>
        <time>2021-10-06T12:10:54Z</time>
      </trkpt>
      <trkpt lat="47.52144" lon="3.60478">
        <ele>140.86</ele>
        <time>2021-10-06T12:11:04Z</time>
      </trkpt>
      <trkpt lat="47.52143" lon="3.6048">
        <ele>140.97</ele>
        <time>2021-10-06T12:11:05Z</time>
      </trkpt>
      <trkpt lat="47.5213" lon="3.60506">
        <ele>140.9</ele>
        <time>2021-10-06T12:11:24Z</time>
      </trkpt>
      <trkpt lat="47.52126" lon="3.60532">
        <ele>141.72</ele>
        <time>2021-10-06T12:11:40Z</time>
      </trkpt>
      <trkpt lat="47.52124" lon="3.60554">
        <ele>143.66</ele>
        <time>2021-10-06T12:11:54Z</time>
      </trkpt>
      <trkpt lat="47.52125" lon="3.60568">
        <ele>145.03</ele>
        <time>2021-10-06T12:12:03Z</time>
      </trkpt>
      <trkpt lat="47.52126" lon="3.60584">
        <ele>146</ele>
        <time>2021-10-06T12:12:13Z</time>
      </trkpt>
      <trkpt lat="47.52124" lon="3.60596">
        <ele>146.83</ele>
        <time>2021-10-06T12:12:21Z</time>
      </trkpt>
      <trkpt lat="47.52124" lon="3.60598">
        <ele>146.89</ele>
        <time>2021-10-06T12:12:22Z</time>
      </trkpt>
      <trkpt lat="47.52123" lon="3.60603">
        <ele>147.07</ele>
        <time>2021-10-06T12:12:25Z</time>
      </trkpt>
      <trkpt lat="47.5212" lon="3.60624">
        <ele>148.59</ele>
        <time>2021-10-06T12:12:40Z</time>
      </trkpt>
      <trkpt lat="47.52117" lon="3.60644">
        <ele>149.92</ele>
        <time>2021-10-06T12:12:54Z</time>
      </trkpt>
      <trkpt lat="47.52111" lon="3.6066">
        <ele>151.9</ele>
        <time>2021-10-06T12:13:13Z</time>
      </trkpt>
      <trkpt lat="47.52098" lon="3.60692">
        <ele>153.65</ele>
        <time>2021-10-06T12:13:35Z</time>
      </trkpt>
      <trkpt lat="47.52091" lon="3.60728">
        <ele>156.21</ele>
        <time>2021-10-06T12:14:01Z</time>
      </trkpt>
      <trkpt lat="47.52092" lon="3.60761">
        <ele>158.22</ele>
        <time>2021-10-06T12:14:25Z</time>
      </trkpt>
      <trkpt lat="47.52095" lon="3.60787">
        <ele>159.95</ele>
        <time>2021-10-06T12:14:42Z</time>
      </trkpt>
      <trkpt lat="47.521" lon="3.60816">
        <ele>162.1</ele>
        <time>2021-10-06T12:15:04Z</time>
      </trkpt>
      <trkpt lat="47.52101" lon="3.60846">
        <ele>163.98</ele>
        <time>2021-10-06T12:15:25Z</time>
      </trkpt>
      <trkpt lat="47.52103" lon="3.60881">
        <ele>167.05</ele>
        <time>2021-10-06T12:15:48Z</time>
      </trkpt>
      <trkpt lat="47.52102" lon="3.60912">
        <ele>169.98</ele>
        <time>2021-10-06T12:16:10Z</time>
      </trkpt>
      <trkpt lat="47.521" lon="3.60936">
        <ele>171.85</ele>
        <time>2021-10-06T12:16:29Z</time>
      </trkpt>
      <trkpt lat="47.52096" lon="3.60964">
        <ele>174.75</ele>
        <time>2021-10-06T12:16:52Z</time>
      </trkpt>
      <trkpt lat="47.52092" lon="3.60981">
        <ele>176.03</ele>
        <time>2021-10-06T12:17:04Z</time>
      </trkpt>
      <trkpt lat="47.52088" lon="3.60999">
        <ele>177.24</ele>
        <time>2021-10-06T12:17:17Z</time>
      </trkpt>
      <trkpt lat="47.52086" lon="3.61025">
        <ele>178.5</ele>
        <time>2021-10-06T12:17:35Z</time>
      </trkpt>
      <trkpt lat="47.52086" lon="3.61048">
        <ele>179.64</ele>
        <time>2021-10-06T12:17:52Z</time>
      </trkpt>
      <trkpt lat="47.5208" lon="3.61068">
        <ele>180.52</ele>
        <time>2021-10-06T12:18:06Z</time>
      </trkpt>
      <trkpt lat="47.52079" lon="3.61071">
        <ele>180.6</ele>
        <time>2021-10-06T12:18:08Z</time>
      </trkpt>
      <trkpt lat="47.52078" lon="3.61073">
        <ele>180.65</ele>
        <time>2021-10-06T12:18:09Z</time>
      </trkpt>
      <trkpt lat="47.52078" lon="3.61075">
        <ele>180.7</ele>
        <time>2021-10-06T12:18:10Z</time>
      </trkpt>
      <trkpt lat="47.5207" lon="3.61097">
        <ele>181.65</ele>
        <time>2021-10-06T12:18:25Z</time>
      </trkpt>
      <trkpt lat="47.52062" lon="3.61128">
        <ele>182.39</ele>
        <time>2021-10-06T12:18:45Z</time>
      </trkpt>
      <trkpt lat="47.52057" lon="3.61149">
        <ele>183.54</ele>
        <time>2021-10-06T12:19:02Z</time>
      </trkpt>
      <trkpt lat="47.52051" lon="3.61176">
        <ele>184.26</ele>
        <time>2021-10-06T12:19:21Z</time>
      </trkpt>
      <trkpt lat="47.52044" lon="3.61207">
        <ele>185.12</ele>
        <time>2021-10-06T12:19:40Z</time>
      </trkpt>
      <trkpt lat="47.52033" lon="3.61242">
        <ele>186.06</ele>
        <time>2021-10-06T12:20:03Z</time>
      </trkpt>
      <trkpt lat="47.5203" lon="3.6125">
        <ele>186.16</ele>
        <time>2021-10-06T12:20:08Z</time>
      </trkpt>
      <trkpt lat="47.52018" lon="3.6128">
        <ele>187.42</ele>
        <time>2021-10-06T12:20:29Z</time>
      </trkpt>
      <trkpt lat="47.52011" lon="3.61295">
        <ele>187.72</ele>
        <time>2021-10-06T12:20:39Z</time>
      </trkpt>
      <trkpt lat="47.51995" lon="3.61323">
        <ele>188.44</ele>
        <time>2021-10-06T12:20:57Z</time>
      </trkpt>
      <trkpt lat="47.51978" lon="3.61356">
        <ele>186.13</ele>
        <time>2021-10-06T12:21:19Z</time>
      </trkpt>
      <trkpt lat="47.51977" lon="3.61358">
        <ele>186.03</ele>
        <time>2021-10-06T12:21:20Z</time>
      </trkpt>
      <trkpt lat="47.51976" lon="3.61359">
        <ele>187.1</ele>
        <time>2021-10-06T12:21:21Z</time>
      </trkpt>
      <trkpt lat="47.51974" lon="3.61364">
        <ele>188.61</ele>
        <time>2021-10-06T12:21:24Z</time>
      </trkpt>
      <trkpt lat="47.51957" lon="3.61397">
        <ele>188.82</ele>
        <time>2021-10-06T12:21:48Z</time>
      </trkpt>
      <trkpt lat="47.51946" lon="3.6142">
        <ele>190.94</ele>
        <time>2021-10-06T12:22:06Z</time>
      </trkpt>
      <trkpt lat="47.51945" lon="3.61421">
        <ele>191.2</ele>
        <time>2021-10-06T12:22:07Z</time>
      </trkpt>
      <trkpt lat="47.51921" lon="3.61448">
        <ele>191.65</ele>
        <time>2021-10-06T12:22:32Z</time>
      </trkpt>
      <trkpt lat="47.51902" lon="3.61473">
        <ele>192.1</ele>
        <time>2021-10-06T12:22:54Z</time>
      </trkpt>
      <trkpt lat="47.51884" lon="3.61494">
        <ele>191.38</ele>
        <time>2021-10-06T12:23:13Z</time>
      </trkpt>
      <trkpt lat="47.5188" lon="3.61499">
        <ele>193.35</ele>
        <time>2021-10-06T12:23:18Z</time>
      </trkpt>
      <trkpt lat="47.5186" lon="3.61523">
        <ele>192.87</ele>
        <time>2021-10-06T12:23:39Z</time>
      </trkpt>
      <trkpt lat="47.51837" lon="3.61551">
        <ele>192.88</ele>
        <time>2021-10-06T12:24:04Z</time>
      </trkpt>
      <trkpt lat="47.51814" lon="3.61576">
        <ele>192.56</ele>
        <time>2021-10-06T12:24:27Z</time>
      </trkpt>
      <trkpt lat="47.51791" lon="3.616">
        <ele>192.01</ele>
        <time>2021-10-06T12:24:51Z</time>
      </trkpt>
      <trkpt lat="47.51766" lon="3.61628">
        <ele>191.18</ele>
        <time>2021-10-06T12:25:17Z</time>
      </trkpt>
      <trkpt lat="47.51763" lon="3.61631">
        <ele>191</ele>
        <time>2021-10-06T12:25:20Z</time>
      </trkpt>
      <trkpt lat="47.51762" lon="3.61632">
        <ele>190.98</ele>
        <time>2021-10-06T12:25:21Z</time>
      </trkpt>
      <trkpt lat="47.51761" lon="3.61633">
        <ele>191.03</ele>
        <time>2021-10-06T12:25:22Z</time>
      </trkpt>
      <trkpt lat="47.51761" lon="3.61634">
        <ele>191.13</ele>
        <time>2021-10-06T12:25:23Z</time>
      </trkpt>
      <trkpt lat="47.5176" lon="3.61635">
        <ele>191.28</ele>
        <time>2021-10-06T12:25:24Z</time>
      </trkpt>
      <trkpt lat="47.51744" lon="3.61654">
        <ele>190.22</ele>
        <time>2021-10-06T12:25:41Z</time>
      </trkpt>
      <trkpt lat="47.51726" lon="3.61678">
        <ele>188.92</ele>
        <time>2021-10-06T12:26:02Z</time>
      </trkpt>
      <trkpt lat="47.51709" lon="3.61703">
        <ele>188.03</ele>
        <time>2021-10-06T12:26:22Z</time>
      </trkpt>
      <trkpt lat="47.51693" lon="3.61732">
        <ele>186.91</ele>
        <time>2021-10-06T12:26:43Z</time>
      </trkpt>
      <trkpt lat="47.51678" lon="3.61752">
        <ele>186.22</ele>
        <time>2021-10-06T12:27:02Z</time>
      </trkpt>
      <trkpt lat="47.5166" lon="3.61779">
        <ele>185.44</ele>
        <time>2021-10-06T12:27:22Z</time>
      </trkpt>
      <trkpt lat="47.51638" lon="3.61795">
        <ele>184.47</ele>
        <time>2021-10-06T12:27:42Z</time>
      </trkpt>
      <trkpt lat="47.51619" lon="3.61801">
        <ele>184.8</ele>
        <time>2021-10-06T12:27:59Z</time>
      </trkpt>
      <trkpt lat="47.51604" lon="3.61797">
        <ele>184.46</ele>
        <time>2021-10-06T12:28:13Z</time>
      </trkpt>
      <trkpt lat="47.51587" lon="3.61787">
        <ele>184.87</ele>
        <time>2021-10-06T12:28:28Z</time>
      </trkpt>
      <trkpt lat="47.51569" lon="3.61777">
        <ele>185.72</ele>
        <time>2021-10-06T12:28:44Z</time>
      </trkpt>
      <trkpt lat="47.51555" lon="3.6177">
        <ele>186.3</ele>
        <time>2021-10-06T12:28:57Z</time>
      </trkpt>
      <trkpt lat="47.51542" lon="3.61764">
        <ele>187.71</ele>
        <time>2021-10-06T12:29:12Z</time>
      </trkpt>
      <trkpt lat="47.51524" lon="3.61752">
        <ele>188.63</ele>
        <time>2021-10-06T12:29:31Z</time>
      </trkpt>
      <trkpt lat="47.51511" lon="3.61745">
        <ele>189.73</ele>
        <time>2021-10-06T12:29:46Z</time>
      </trkpt>
      <trkpt lat="47.51494" lon="3.61718">
        <ele>191.17</ele>
        <time>2021-10-06T12:30:16Z</time>
      </trkpt>
      <trkpt lat="47.51483" lon="3.61708">
        <ele>192.01</ele>
        <time>2021-10-06T12:30:45Z</time>
      </trkpt>
      <trkpt lat="47.51482" lon="3.61708">
        <ele>192.27</ele>
        <time>2021-10-06T12:31:05Z</time>
      </trkpt>
      <trkpt lat="47.51478" lon="3.61708">
        <ele>191.64</ele>
        <time>2021-10-06T12:31:28Z</time>
      </trkpt>
      <trkpt lat="47.51473" lon="3.61701">
        <ele>192.3</ele>
        <time>2021-10-06T12:31:51Z</time>
      </trkpt>
      <trkpt lat="47.51473" lon="3.61701">
        <ele>192.5</ele>
        <time>2021-10-06T12:32:30Z</time>
      </trkpt>
      <trkpt lat="47.51473" lon="3.617">
        <ele>191.78</ele>
        <time>2021-10-06T12:32:59Z</time>
      </trkpt>
      <trkpt lat="47.51473" lon="3.617">
        <ele>191.56</ele>
        <time>2021-10-06T12:33:17Z</time>
      </trkpt>
      <trkpt lat="47.51471" lon="3.61704">
        <ele>191.82</ele>
        <time>2021-10-06T12:33:43Z</time>
      </trkpt>
      <trkpt lat="47.51471" lon="3.61703">
        <ele>191.62</ele>
        <time>2021-10-06T12:34:04Z</time>
      </trkpt>
      <trkpt lat="47.51471" lon="3.61703">
        <ele>191.39</ele>
        <time>2021-10-06T12:34:31Z</time>
      </trkpt>
      <trkpt lat="47.51472" lon="3.61707">
        <ele>191.73</ele>
        <time>2021-10-06T12:34:59Z</time>
      </trkpt>
      <trkpt lat="47.51471" lon="3.61708">
        <ele>191.37</ele>
        <time>2021-10-06T12:35:24Z</time>
      </trkpt>
      <trkpt lat="47.51471" lon="3.61707">
        <ele>191.46</ele>
        <time>2021-10-06T12:35:47Z</time>
      </trkpt>
      <trkpt lat="47.51471" lon="3.61706">
        <ele>192.57</ele>
        <time>2021-10-06T12:36:10Z</time>
      </trkpt>
      <trkpt lat="47.51471" lon="3.61706">
        <ele>192.52</ele>
        <time>2021-10-06T12:36:34Z</time>
      </trkpt>
      <trkpt lat="47.5147" lon="3.61706">
        <ele>191.86</ele>
        <time>2021-10-06T12:36:54Z</time>
      </trkpt>
      <trkpt lat="47.51447" lon="3.61679">
        <ele>191.7</ele>
        <time>2021-10-06T12:37:52Z</time>
      </trkpt>
      <trkpt lat="47.51412" lon="3.6166">
        <ele>192.7</ele>
        <time>2021-10-06T12:38:26Z</time>
      </trkpt>
      <trkpt lat="47.51383" lon="3.61651">
        <ele>193.19</ele>
        <time>2021-10-06T12:38:50Z</time>
      </trkpt>
      <trkpt lat="47.51379" lon="3.61647">
        <ele>193.34</ele>
        <time>2021-10-06T12:38:54Z</time>
      </trkpt>
      <trkpt lat="47.51377" lon="3.61646">
        <ele>193.28</ele>
        <time>2021-10-06T12:38:55Z</time>
      </trkpt>
      <trkpt lat="47.51363" lon="3.61641">
        <ele>192.94</ele>
        <time>2021-10-06T12:39:06Z</time>
      </trkpt>
      <trkpt lat="47.51351" lon="3.61633">
        <ele>193.66</ele>
        <time>2021-10-06T12:39:18Z</time>
      </trkpt>
      <trkpt lat="47.51354" lon="3.61616">
        <ele>194.05</ele>
        <time>2021-10-06T12:39:31Z</time>
      </trkpt>
      <trkpt lat="47.51356" lon="3.61611">
        <ele>193.91</ele>
        <time>2021-10-06T12:39:35Z</time>
      </trkpt>
      <trkpt lat="47.51361" lon="3.61587">
        <ele>193.26</ele>
        <time>2021-10-06T12:39:53Z</time>
      </trkpt>
      <trkpt lat="47.51362" lon="3.61583">
        <ele>193.04</ele>
        <time>2021-10-06T12:39:56Z</time>
      </trkpt>
      <trkpt lat="47.51363" lon="3.61573">
        <ele>192.8</ele>
        <time>2021-10-06T12:40:00Z</time>
      </trkpt>
      <trkpt lat="47.51364" lon="3.61564">
        <ele>192.66</ele>
        <time>2021-10-06T12:40:06Z</time>
      </trkpt>
      <trkpt lat="47.51361" lon="3.61535">
        <ele>192.36</ele>
        <time>2021-10-06T12:40:22Z</time>
      </trkpt>
      <trkpt lat="47.51348" lon="3.61507">
        <ele>191.67</ele>
        <time>2021-10-06T12:40:42Z</time>
      </trkpt>
      <trkpt lat="47.51342" lon="3.61486">
        <ele>191.22</ele>
        <time>2021-10-06T12:40:59Z</time>
      </trkpt>
      <trkpt lat="47.51334" lon="3.61451">
        <ele>190.32</ele>
        <time>2021-10-06T12:41:18Z</time>
      </trkpt>
      <trkpt lat="47.51326" lon="3.61423">
        <ele>189.46</ele>
        <time>2021-10-06T12:41:36Z</time>
      </trkpt>
      <trkpt lat="47.51323" lon="3.61398">
        <ele>188.83</ele>
        <time>2021-10-06T12:41:51Z</time>
      </trkpt>
      <trkpt lat="47.51315" lon="3.61367">
        <ele>188.14</ele>
        <time>2021-10-06T12:42:09Z</time>
      </trkpt>
      <trkpt lat="47.51302" lon="3.61348">
        <ele>186.82</ele>
        <time>2021-10-06T12:42:23Z</time>
      </trkpt>
      <trkpt lat="47.51301" lon="3.61343">
        <ele>186.53</ele>
        <time>2021-10-06T12:42:26Z</time>
      </trkpt>
      <trkpt lat="47.51294" lon="3.61319">
        <ele>185.49</ele>
        <time>2021-10-06T12:42:40Z</time>
      </trkpt>
      <trkpt lat="47.51291" lon="3.61295">
        <ele>185.12</ele>
        <time>2021-10-06T12:42:54Z</time>
      </trkpt>
      <trkpt lat="47.51291" lon="3.61287">
        <ele>185.13</ele>
        <time>2021-10-06T12:42:57Z</time>
      </trkpt>
      <trkpt lat="47.51291" lon="3.61285">
        <ele>185.13</ele>
        <time>2021-10-06T12:42:58Z</time>
      </trkpt>
      <trkpt lat="47.51291" lon="3.61261">
        <ele>185.66</ele>
        <time>2021-10-06T12:43:12Z</time>
      </trkpt>
      <trkpt lat="47.51291" lon="3.61256">
        <ele>185.5</ele>
        <time>2021-10-06T12:43:14Z</time>
      </trkpt>
      <trkpt lat="47.51292" lon="3.61253">
        <ele>185.44</ele>
        <time>2021-10-06T12:43:15Z</time>
      </trkpt>
      <trkpt lat="47.51293" lon="3.61226">
        <ele>184.21</ele>
        <time>2021-10-06T12:43:33Z</time>
      </trkpt>
      <trkpt lat="47.51281" lon="3.61196">
        <ele>184.27</ele>
        <time>2021-10-06T12:43:51Z</time>
      </trkpt>
      <trkpt lat="47.5128" lon="3.61194">
        <ele>184.33</ele>
        <time>2021-10-06T12:43:52Z</time>
      </trkpt>
      <trkpt lat="47.5128" lon="3.61192">
        <ele>184.42</ele>
        <time>2021-10-06T12:43:53Z</time>
      </trkpt>
      <trkpt lat="47.51279" lon="3.6119">
        <ele>184.52</ele>
        <time>2021-10-06T12:43:54Z</time>
      </trkpt>
      <trkpt lat="47.51278" lon="3.61188">
        <ele>184.65</ele>
        <time>2021-10-06T12:43:55Z</time>
      </trkpt>
      <trkpt lat="47.51277" lon="3.61186">
        <ele>184.75</ele>
        <time>2021-10-06T12:43:56Z</time>
      </trkpt>
      <trkpt lat="47.5127" lon="3.61176">
        <ele>184.98</ele>
        <time>2021-10-06T12:44:04Z</time>
      </trkpt>
      <trkpt lat="47.51269" lon="3.61175">
        <ele>185.02</ele>
        <time>2021-10-06T12:44:05Z</time>
      </trkpt>
      <trkpt lat="47.51254" lon="3.61152">
        <ele>185.84</ele>
        <time>2021-10-06T12:44:24Z</time>
      </trkpt>
      <trkpt lat="47.51243" lon="3.61129">
        <ele>186.28</ele>
        <time>2021-10-06T12:44:41Z</time>
      </trkpt>
      <trkpt lat="47.51229" lon="3.61102">
        <ele>187.04</ele>
        <time>2021-10-06T12:44:58Z</time>
      </trkpt>
      <trkpt lat="47.51217" lon="3.61074">
        <ele>186.81</ele>
        <time>2021-10-06T12:45:15Z</time>
      </trkpt>
      <trkpt lat="47.51215" lon="3.61063">
        <ele>186.68</ele>
        <time>2021-10-06T12:45:23Z</time>
      </trkpt>
      <trkpt lat="47.51206" lon="3.61042">
        <ele>186.04</ele>
        <time>2021-10-06T12:45:38Z</time>
      </trkpt>
      <trkpt lat="47.51198" lon="3.6101">
        <ele>185.22</ele>
        <time>2021-10-06T12:45:56Z</time>
      </trkpt>
      <trkpt lat="47.51189" lon="3.60981">
        <ele>184.36</ele>
        <time>2021-10-06T12:46:13Z</time>
      </trkpt>
      <trkpt lat="47.51187" lon="3.60978">
        <ele>184.24</ele>
        <time>2021-10-06T12:46:15Z</time>
      </trkpt>
      <trkpt lat="47.51175" lon="3.60946">
        <ele>182.4</ele>
        <time>2021-10-06T12:46:34Z</time>
      </trkpt>
      <trkpt lat="47.51163" lon="3.60912">
        <ele>181.35</ele>
        <time>2021-10-06T12:46:50Z</time>
      </trkpt>
      <trkpt lat="47.51153" lon="3.60877">
        <ele>179.98</ele>
        <time>2021-10-06T12:47:10Z</time>
      </trkpt>
      <trkpt lat="47.51145" lon="3.60862">
        <ele>179.41</ele>
        <time>2021-10-06T12:47:23Z</time>
      </trkpt>
      <trkpt lat="47.51132" lon="3.60878">
        <ele>179.94</ele>
        <time>2021-10-06T12:47:43Z</time>
      </trkpt>
      <trkpt lat="47.51123" lon="3.60899">
        <ele>181.53</ele>
        <time>2021-10-06T12:48:01Z</time>
      </trkpt>
      <trkpt lat="47.51113" lon="3.60918">
        <ele>182.94</ele>
        <time>2021-10-06T12:48:15Z</time>
      </trkpt>
      <trkpt lat="47.51112" lon="3.60919">
        <ele>183.06</ele>
        <time>2021-10-06T12:48:16Z</time>
      </trkpt>
      <trkpt lat="47.51111" lon="3.60921">
        <ele>183.13</ele>
        <time>2021-10-06T12:48:17Z</time>
      </trkpt>
      <trkpt lat="47.51109" lon="3.60926">
        <ele>183.41</ele>
        <time>2021-10-06T12:48:21Z</time>
      </trkpt>
      <trkpt lat="47.51108" lon="3.60928">
        <ele>183.49</ele>
        <time>2021-10-06T12:48:22Z</time>
      </trkpt>
      <trkpt lat="47.51098" lon="3.60947">
        <ele>185.1</ele>
        <time>2021-10-06T12:48:40Z</time>
      </trkpt>
      <trkpt lat="47.51087" lon="3.6097">
        <ele>185.57</ele>
        <time>2021-10-06T12:48:57Z</time>
      </trkpt>
      <trkpt lat="47.51076" lon="3.60992">
        <ele>186.82</ele>
        <time>2021-10-06T12:49:16Z</time>
      </trkpt>
      <trkpt lat="47.51061" lon="3.61019">
        <ele>188.24</ele>
        <time>2021-10-06T12:49:35Z</time>
      </trkpt>
      <trkpt lat="47.51049" lon="3.6104">
        <ele>188.81</ele>
        <time>2021-10-06T12:49:50Z</time>
      </trkpt>
      <trkpt lat="47.51039" lon="3.61059">
        <ele>190.03</ele>
        <time>2021-10-06T12:50:05Z</time>
      </trkpt>
      <trkpt lat="47.51031" lon="3.61075">
        <ele>191.16</ele>
        <time>2021-10-06T12:50:18Z</time>
      </trkpt>
      <trkpt lat="47.51017" lon="3.61104">
        <ele>192.27</ele>
        <time>2021-10-06T12:50:38Z</time>
      </trkpt>
      <trkpt lat="47.51002" lon="3.6113">
        <ele>194.22</ele>
        <time>2021-10-06T12:50:59Z</time>
      </trkpt>
      <trkpt lat="47.50998" lon="3.61137">
        <ele>194.57</ele>
        <time>2021-10-06T12:51:04Z</time>
      </trkpt>
      <trkpt lat="47.50985" lon="3.6116">
        <ele>195.39</ele>
        <time>2021-10-06T12:51:23Z</time>
      </trkpt>
      <trkpt lat="47.50966" lon="3.61192">
        <ele>197.96</ele>
        <time>2021-10-06T12:51:52Z</time>
      </trkpt>
      <trkpt lat="47.50944" lon="3.61233">
        <ele>198.98</ele>
        <time>2021-10-06T12:52:20Z</time>
      </trkpt>
      <trkpt lat="47.50925" lon="3.61274">
        <ele>200.49</ele>
        <time>2021-10-06T12:52:46Z</time>
      </trkpt>
      <trkpt lat="47.50907" lon="3.61304">
        <ele>201.93</ele>
        <time>2021-10-06T12:53:12Z</time>
      </trkpt>
      <trkpt lat="47.50891" lon="3.61336">
        <ele>201.67</ele>
        <time>2021-10-06T12:53:28Z</time>
      </trkpt>
      <trkpt lat="47.50879" lon="3.61355">
        <ele>198.79</ele>
        <time>2021-10-06T12:53:44Z</time>
      </trkpt>
      <trkpt lat="47.50867" lon="3.61381">
        <ele>201.17</ele>
        <time>2021-10-06T12:54:04Z</time>
      </trkpt>
      <trkpt lat="47.50851" lon="3.61414">
        <ele>202.44</ele>
        <time>2021-10-06T12:54:26Z</time>
      </trkpt>
      <trkpt lat="47.50837" lon="3.61437">
        <ele>202.36</ele>
        <time>2021-10-06T12:54:45Z</time>
      </trkpt>
      <trkpt lat="47.50819" lon="3.6147">
        <ele>203.1</ele>
        <time>2021-10-06T12:55:05Z</time>
      </trkpt>
      <trkpt lat="47.50809" lon="3.61487">
        <ele>203.09</ele>
        <time>2021-10-06T12:55:22Z</time>
      </trkpt>
      <trkpt lat="47.508" lon="3.61505">
        <ele>202.65</ele>
        <time>2021-10-06T12:55:32Z</time>
      </trkpt>
      <trkpt lat="47.5079" lon="3.61524">
        <ele>201.24</ele>
        <time>2021-10-06T12:55:46Z</time>
      </trkpt>
      <trkpt lat="47.50777" lon="3.61543">
        <ele>201.63</ele>
        <time>2021-10-06T12:56:04Z</time>
      </trkpt>
      <trkpt lat="47.50756" lon="3.61551">
        <ele>200.46</ele>
        <time>2021-10-06T12:56:25Z</time>
      </trkpt>
      <trkpt lat="47.50753" lon="3.61551">
        <ele>200.58</ele>
        <time>2021-10-06T12:56:27Z</time>
      </trkpt>
      <trkpt lat="47.50751" lon="3.6155">
        <ele>200.6</ele>
        <time>2021-10-06T12:56:28Z</time>
      </trkpt>
      <trkpt lat="47.50728" lon="3.61553">
        <ele>198.85</ele>
        <time>2021-10-06T12:56:52Z</time>
      </trkpt>
      <trkpt lat="47.50692" lon="3.61559">
        <ele>197.92</ele>
        <time>2021-10-06T12:57:17Z</time>
      </trkpt>
      <trkpt lat="47.50666" lon="3.61569">
        <ele>195.2</ele>
        <time>2021-10-06T12:57:42Z</time>
      </trkpt>
      <trkpt lat="47.50632" lon="3.61591">
        <ele>196.11</ele>
        <time>2021-10-06T12:58:10Z</time>
      </trkpt>
      <trkpt lat="47.50603" lon="3.61615">
        <ele>197.11</ele>
        <time>2021-10-06T12:58:36Z</time>
      </trkpt>
      <trkpt lat="47.50573" lon="3.61629">
        <ele>198.01</ele>
        <time>2021-10-06T12:59:04Z</time>
      </trkpt>
      <trkpt lat="47.5055" lon="3.6165">
        <ele>200.19</ele>
        <time>2021-10-06T12:59:33Z</time>
      </trkpt>
      <trkpt lat="47.50521" lon="3.61661">
        <ele>201.41</ele>
        <time>2021-10-06T13:00:01Z</time>
      </trkpt>
      <trkpt lat="47.50493" lon="3.61657">
        <ele>202.5</ele>
        <time>2021-10-06T13:00:27Z</time>
      </trkpt>
      <trkpt lat="47.50471" lon="3.61636">
        <ele>204.06</ele>
        <time>2021-10-06T13:00:53Z</time>
      </trkpt>
      <trkpt lat="47.50452" lon="3.61613">
        <ele>205.73</ele>
        <time>2021-10-06T13:01:19Z</time>
      </trkpt>
      <trkpt lat="47.50431" lon="3.61591">
        <ele>205.37</ele>
        <time>2021-10-06T13:01:35Z</time>
      </trkpt>
      <trkpt lat="47.50423" lon="3.61585">
        <ele>205.64</ele>
        <time>2021-10-06T13:01:42Z</time>
      </trkpt>
      <trkpt lat="47.50422" lon="3.61584">
        <ele>205.7</ele>
        <time>2021-10-06T13:01:43Z</time>
      </trkpt>
      <trkpt lat="47.5042" lon="3.61583">
        <ele>205.77</ele>
        <time>2021-10-06T13:01:44Z</time>
      </trkpt>
      <trkpt lat="47.50405" lon="3.61568">
        <ele>206.35</ele>
        <time>2021-10-06T13:01:58Z</time>
      </trkpt>
      <trkpt lat="47.5039" lon="3.61551">
        <ele>205.9</ele>
        <time>2021-10-06T13:02:13Z</time>
      </trkpt>
      <trkpt lat="47.50374" lon="3.61533">
        <ele>206.33</ele>
        <time>2021-10-06T13:02:31Z</time>
      </trkpt>
      <trkpt lat="47.50367" lon="3.61527">
        <ele>206.46</ele>
        <time>2021-10-06T13:02:38Z</time>
      </trkpt>
      <trkpt lat="47.50366" lon="3.61526">
        <ele>206.49</ele>
        <time>2021-10-06T13:02:39Z</time>
      </trkpt>
      <trkpt lat="47.50366" lon="3.61524">
        <ele>206.5</ele>
        <time>2021-10-06T13:02:40Z</time>
      </trkpt>
      <trkpt lat="47.50365" lon="3.61523">
        <ele>206.51</ele>
        <time>2021-10-06T13:02:41Z</time>
      </trkpt>
      <trkpt lat="47.50364" lon="3.61522">
        <ele>206.51</ele>
        <time>2021-10-06T13:02:42Z</time>
      </trkpt>
      <trkpt lat="47.50363" lon="3.61521">
        <ele>206.51</ele>
        <time>2021-10-06T13:02:43Z</time>
      </trkpt>
      <trkpt lat="47.50347" lon="3.61505">
        <ele>206.58</ele>
        <time>2021-10-06T13:02:58Z</time>
      </trkpt>
      <trkpt lat="47.50334" lon="3.61491">
        <ele>206.48</ele>
        <time>2021-10-06T13:03:12Z</time>
      </trkpt>
      <trkpt lat="47.50322" lon="3.6148">
        <ele>206.01</ele>
        <time>2021-10-06T13:03:26Z</time>
      </trkpt>
      <trkpt lat="47.50298" lon="3.61462">
        <ele>206.27</ele>
        <time>2021-10-06T13:03:51Z</time>
      </trkpt>
      <trkpt lat="47.50271" lon="3.61446">
        <ele>206.09</ele>
        <time>2021-10-06T13:04:17Z</time>
      </trkpt>
      <trkpt lat="47.50248" lon="3.61428">
        <ele>205.4</ele>
        <time>2021-10-06T13:04:41Z</time>
      </trkpt>
      <trkpt lat="47.50214" lon="3.6141">
        <ele>204.63</ele>
        <time>2021-10-06T13:05:14Z</time>
      </trkpt>
      <trkpt lat="47.50187" lon="3.61391">
        <ele>204.06</ele>
        <time>2021-10-06T13:05:36Z</time>
      </trkpt>
      <trkpt lat="47.50178" lon="3.61388">
        <ele>203.14</ele>
        <time>2021-10-06T13:05:42Z</time>
      </trkpt>
      <trkpt lat="47.50168" lon="3.61397">
        <ele>199.13</ele>
        <time>2021-10-06T13:05:51Z</time>
      </trkpt>
      <trkpt lat="47.50166" lon="3.61398">
        <ele>198.36</ele>
        <time>2021-10-06T13:05:53Z</time>
      </trkpt>
      <trkpt lat="47.50163" lon="3.61405">
        <ele>200.7</ele>
        <time>2021-10-06T13:05:59Z</time>
      </trkpt>
      <trkpt lat="47.50159" lon="3.61415">
        <ele>202.81</ele>
        <time>2021-10-06T13:06:06Z</time>
      </trkpt>
      <trkpt lat="47.50153" lon="3.61431">
        <ele>205.33</ele>
        <time>2021-10-06T13:06:17Z</time>
      </trkpt>
      <trkpt lat="47.50152" lon="3.61432">
        <ele>205.06</ele>
        <time>2021-10-06T13:06:18Z</time>
      </trkpt>
      <trkpt lat="47.50152" lon="3.61434">
        <ele>204.87</ele>
        <time>2021-10-06T13:06:19Z</time>
      </trkpt>
      <trkpt lat="47.5015" lon="3.61439">
        <ele>204.27</ele>
        <time>2021-10-06T13:06:23Z</time>
      </trkpt>
      <trkpt lat="47.50149" lon="3.61441">
        <ele>204.18</ele>
        <time>2021-10-06T13:06:24Z</time>
      </trkpt>
      <trkpt lat="47.50148" lon="3.61442">
        <ele>204.1</ele>
        <time>2021-10-06T13:06:25Z</time>
      </trkpt>
      <trkpt lat="47.50148" lon="3.61444">
        <ele>204.05</ele>
        <time>2021-10-06T13:06:26Z</time>
      </trkpt>
      <trkpt lat="47.50147" lon="3.61445">
        <ele>203.99</ele>
        <time>2021-10-06T13:06:27Z</time>
      </trkpt>
      <trkpt lat="47.50147" lon="3.61447">
        <ele>203.95</ele>
        <time>2021-10-06T13:06:28Z</time>
      </trkpt>
      <trkpt lat="47.50139" lon="3.6147">
        <ele>203.53</ele>
        <time>2021-10-06T13:06:43Z</time>
      </trkpt>
      <trkpt lat="47.50135" lon="3.61481">
        <ele>203.34</ele>
        <time>2021-10-06T13:06:50Z</time>
      </trkpt>
      <trkpt lat="47.50135" lon="3.61483">
        <ele>203.34</ele>
        <time>2021-10-06T13:06:51Z</time>
      </trkpt>
      <trkpt lat="47.50124" lon="3.61513">
        <ele>202.61</ele>
        <time>2021-10-06T13:07:11Z</time>
      </trkpt>
      <trkpt lat="47.50116" lon="3.61533">
        <ele>202.14</ele>
        <time>2021-10-06T13:07:24Z</time>
      </trkpt>
      <trkpt lat="47.50116" lon="3.61535">
        <ele>202.08</ele>
        <time>2021-10-06T13:07:25Z</time>
      </trkpt>
      <trkpt lat="47.50115" lon="3.61537">
        <ele>202</ele>
        <time>2021-10-06T13:07:26Z</time>
      </trkpt>
      <trkpt lat="47.50115" lon="3.61538">
        <ele>201.91</ele>
        <time>2021-10-06T13:07:27Z</time>
      </trkpt>
      <trkpt lat="47.50114" lon="3.6154">
        <ele>201.83</ele>
        <time>2021-10-06T13:07:28Z</time>
      </trkpt>
      <trkpt lat="47.50114" lon="3.61541">
        <ele>201.74</ele>
        <time>2021-10-06T13:07:29Z</time>
      </trkpt>
      <trkpt lat="47.50102" lon="3.61569">
        <ele>201.75</ele>
        <time>2021-10-06T13:07:47Z</time>
      </trkpt>
      <trkpt lat="47.50099" lon="3.61578">
        <ele>202.11</ele>
        <time>2021-10-06T13:07:53Z</time>
      </trkpt>
      <trkpt lat="47.50098" lon="3.6158">
        <ele>202.12</ele>
        <time>2021-10-06T13:07:54Z</time>
      </trkpt>
      <trkpt lat="47.50098" lon="3.61581">
        <ele>202.14</ele>
        <time>2021-10-06T13:07:55Z</time>
      </trkpt>
      <trkpt lat="47.50098" lon="3.61583">
        <ele>202.19</ele>
        <time>2021-10-06T13:07:56Z</time>
      </trkpt>
      <trkpt lat="47.50097" lon="3.61584">
        <ele>202.21</ele>
        <time>2021-10-06T13:07:57Z</time>
      </trkpt>
      <trkpt lat="47.50097" lon="3.61586">
        <ele>202.25</ele>
        <time>2021-10-06T13:07:58Z</time>
      </trkpt>
      <trkpt lat="47.50097" lon="3.61587">
        <ele>202.27</ele>
        <time>2021-10-06T13:07:59Z</time>
      </trkpt>
      <trkpt lat="47.50089" lon="3.6161">
        <ele>203.18</ele>
        <time>2021-10-06T13:08:13Z</time>
      </trkpt>
      <trkpt lat="47.50088" lon="3.61611">
        <ele>203.25</ele>
        <time>2021-10-06T13:08:14Z</time>
      </trkpt>
      <trkpt lat="47.50078" lon="3.6164">
        <ele>204.09</ele>
        <time>2021-10-06T13:08:33Z</time>
      </trkpt>
      <trkpt lat="47.5007" lon="3.61655">
        <ele>204.4</ele>
        <time>2021-10-06T13:08:47Z</time>
      </trkpt>
      <trkpt lat="47.5005" lon="3.61682">
        <ele>203.38</ele>
        <time>2021-10-06T13:09:07Z</time>
      </trkpt>
      <trkpt lat="47.50033" lon="3.61696">
        <ele>204.26</ele>
        <time>2021-10-06T13:09:23Z</time>
      </trkpt>
      <trkpt lat="47.50032" lon="3.61696">
        <ele>203.99</ele>
        <time>2021-10-06T13:09:24Z</time>
      </trkpt>
      <trkpt lat="47.50012" lon="3.61705">
        <ele>206.17</ele>
        <time>2021-10-06T13:09:40Z</time>
      </trkpt>
      <trkpt lat="47.50011" lon="3.61706">
        <ele>206.17</ele>
        <time>2021-10-06T13:09:41Z</time>
      </trkpt>
      <trkpt lat="47.50009" lon="3.61706">
        <ele>206.17</ele>
        <time>2021-10-06T13:09:42Z</time>
      </trkpt>
      <trkpt lat="47.50008" lon="3.61706">
        <ele>206.06</ele>
        <time>2021-10-06T13:09:43Z</time>
      </trkpt>
      <trkpt lat="47.49994" lon="3.61709">
        <ele>205.4</ele>
        <time>2021-10-06T13:09:55Z</time>
      </trkpt>
      <trkpt lat="47.49993" lon="3.6171">
        <ele>205.4</ele>
        <time>2021-10-06T13:09:56Z</time>
      </trkpt>
      <trkpt lat="47.49992" lon="3.6171">
        <ele>205.4</ele>
        <time>2021-10-06T13:09:57Z</time>
      </trkpt>
      <trkpt lat="47.49991" lon="3.6171">
        <ele>205.41</ele>
        <time>2021-10-06T13:09:58Z</time>
      </trkpt>
      <trkpt lat="47.49989" lon="3.6171">
        <ele>205.48</ele>
        <time>2021-10-06T13:09:59Z</time>
      </trkpt>
      <trkpt lat="47.49965" lon="3.61716">
        <ele>207.32</ele>
        <time>2021-10-06T13:10:19Z</time>
      </trkpt>
      <trkpt lat="47.49937" lon="3.61722">
        <ele>208.69</ele>
        <time>2021-10-06T13:10:42Z</time>
      </trkpt>
      <trkpt lat="47.49912" lon="3.61727">
        <ele>209.67</ele>
        <time>2021-10-06T13:11:04Z</time>
      </trkpt>
      <trkpt lat="47.49881" lon="3.6173">
        <ele>210.1</ele>
        <time>2021-10-06T13:11:29Z</time>
      </trkpt>
      <trkpt lat="47.49849" lon="3.61733">
        <ele>210.79</ele>
        <time>2021-10-06T13:11:55Z</time>
      </trkpt>
      <trkpt lat="47.4982" lon="3.61732">
        <ele>211.1</ele>
        <time>2021-10-06T13:12:19Z</time>
      </trkpt>
      <trkpt lat="47.49789" lon="3.6174">
        <ele>211.7</ele>
        <time>2021-10-06T13:12:44Z</time>
      </trkpt>
      <trkpt lat="47.49764" lon="3.61746">
        <ele>212</ele>
        <time>2021-10-06T13:13:05Z</time>
      </trkpt>
      <trkpt lat="47.49737" lon="3.61751">
        <ele>212.72</ele>
        <time>2021-10-06T13:13:28Z</time>
      </trkpt>
      <trkpt lat="47.49713" lon="3.61759">
        <ele>212.52</ele>
        <time>2021-10-06T13:13:48Z</time>
      </trkpt>
      <trkpt lat="47.49682" lon="3.61762">
        <ele>213.23</ele>
        <time>2021-10-06T13:14:14Z</time>
      </trkpt>
      <trkpt lat="47.49647" lon="3.61766">
        <ele>214.88</ele>
        <time>2021-10-06T13:14:44Z</time>
      </trkpt>
      <trkpt lat="47.49621" lon="3.61767">
        <ele>215.87</ele>
        <time>2021-10-06T13:15:06Z</time>
      </trkpt>
      <trkpt lat="47.4959" lon="3.61767">
        <ele>216.82</ele>
        <time>2021-10-06T13:15:33Z</time>
      </trkpt>
      <trkpt lat="47.49569" lon="3.61768">
        <ele>216.65</ele>
        <time>2021-10-06T13:15:52Z</time>
      </trkpt>
      <trkpt lat="47.49548" lon="3.6177">
        <ele>216.78</ele>
        <time>2021-10-06T13:16:08Z</time>
      </trkpt>
      <trkpt lat="47.49543" lon="3.61783">
        <ele>217.01</ele>
        <time>2021-10-06T13:16:22Z</time>
      </trkpt>
      <trkpt lat="47.49545" lon="3.61784">
        <ele>216.6</ele>
        <time>2021-10-06T13:16:23Z</time>
      </trkpt>
      <trkpt lat="47.49546" lon="3.61784">
        <ele>216.48</ele>
        <time>2021-10-06T13:16:24Z</time>
      </trkpt>
      <trkpt lat="47.49563" lon="3.61784">
        <ele>216.78</ele>
        <time>2021-10-06T13:16:41Z</time>
      </trkpt>
      <trkpt lat="47.49585" lon="3.61787">
        <ele>215.14</ele>
        <time>2021-10-06T13:17:03Z</time>
      </trkpt>
      <trkpt lat="47.49592" lon="3.61789">
        <ele>215.01</ele>
        <time>2021-10-06T13:17:17Z</time>
      </trkpt>
      <trkpt lat="47.49599" lon="3.61795">
        <ele>215.11</ele>
        <time>2021-10-06T13:17:31Z</time>
      </trkpt>
      <trkpt lat="47.49614" lon="3.61811">
        <ele>214.55</ele>
        <time>2021-10-06T13:17:50Z</time>
      </trkpt>
      <trkpt lat="47.49626" lon="3.61833">
        <ele>213.57</ele>
        <time>2021-10-06T13:18:11Z</time>
      </trkpt>
      <trkpt lat="47.49641" lon="3.61856">
        <ele>213.19</ele>
        <time>2021-10-06T13:18:32Z</time>
      </trkpt>
      <trkpt lat="47.4965" lon="3.6187">
        <ele>212.91</ele>
        <time>2021-10-06T13:18:50Z</time>
      </trkpt>
      <trkpt lat="47.49661" lon="3.61889">
        <ele>212.82</ele>
        <time>2021-10-06T13:19:14Z</time>
      </trkpt>
      <trkpt lat="47.49675" lon="3.61915">
        <ele>211.85</ele>
        <time>2021-10-06T13:19:36Z</time>
      </trkpt>
      <trkpt lat="47.49692" lon="3.61947">
        <ele>211.44</ele>
        <time>2021-10-06T13:19:59Z</time>
      </trkpt>
      <trkpt lat="47.49703" lon="3.61966">
        <ele>211.54</ele>
        <time>2021-10-06T13:20:13Z</time>
      </trkpt>
      <trkpt lat="47.49714" lon="3.61986">
        <ele>211.03</ele>
        <time>2021-10-06T13:20:29Z</time>
      </trkpt>
      <trkpt lat="47.49729" lon="3.62009">
        <ele>211.05</ele>
        <time>2021-10-06T13:20:50Z</time>
      </trkpt>
      <trkpt lat="47.49755" lon="3.6204">
        <ele>210.69</ele>
        <time>2021-10-06T13:21:14Z</time>
      </trkpt>
      <trkpt lat="47.49776" lon="3.62071">
        <ele>210.05</ele>
        <time>2021-10-06T13:21:36Z</time>
      </trkpt>
      <trkpt lat="47.49785" lon="3.62091">
        <ele>209.69</ele>
        <time>2021-10-06T13:21:51Z</time>
      </trkpt>
      <trkpt lat="47.49801" lon="3.62118">
        <ele>209.89</ele>
        <time>2021-10-06T13:22:11Z</time>
      </trkpt>
      <trkpt lat="47.49822" lon="3.62147">
        <ele>209.6</ele>
        <time>2021-10-06T13:22:35Z</time>
      </trkpt>
      <trkpt lat="47.49845" lon="3.62162">
        <ele>209.42</ele>
        <time>2021-10-06T13:22:57Z</time>
      </trkpt>
      <trkpt lat="47.4986" lon="3.6217">
        <ele>208.34</ele>
        <time>2021-10-06T13:23:13Z</time>
      </trkpt>
      <trkpt lat="47.49884" lon="3.62179">
        <ele>208.75</ele>
        <time>2021-10-06T13:23:34Z</time>
      </trkpt>
      <trkpt lat="47.49914" lon="3.62192">
        <ele>209.49</ele>
        <time>2021-10-06T13:24:07Z</time>
      </trkpt>
      <trkpt lat="47.49946" lon="3.62215">
        <ele>209.22</ele>
        <time>2021-10-06T13:24:39Z</time>
      </trkpt>
      <trkpt lat="47.49994" lon="3.62234">
        <ele>207.83</ele>
        <time>2021-10-06T13:25:08Z</time>
      </trkpt>
      <trkpt lat="47.50024" lon="3.62251">
        <ele>207.52</ele>
        <time>2021-10-06T13:25:35Z</time>
      </trkpt>
      <trkpt lat="47.50053" lon="3.62275">
        <ele>206.92</ele>
        <time>2021-10-06T13:26:03Z</time>
      </trkpt>
      <trkpt lat="47.50076" lon="3.62294">
        <ele>207.11</ele>
        <time>2021-10-06T13:26:29Z</time>
      </trkpt>
      <trkpt lat="47.50106" lon="3.62314">
        <ele>206.46</ele>
        <time>2021-10-06T13:26:57Z</time>
      </trkpt>
      <trkpt lat="47.50137" lon="3.62332">
        <ele>205.85</ele>
        <time>2021-10-06T13:27:24Z</time>
      </trkpt>
      <trkpt lat="47.50169" lon="3.6235">
        <ele>204.52</ele>
        <time>2021-10-06T13:27:52Z</time>
      </trkpt>
      <trkpt lat="47.502" lon="3.62364">
        <ele>203.28</ele>
        <time>2021-10-06T13:28:20Z</time>
      </trkpt>
      <trkpt lat="47.50213" lon="3.62363">
        <ele>202.97</ele>
        <time>2021-10-06T13:28:30Z</time>
      </trkpt>
      <trkpt lat="47.5025" lon="3.62365">
        <ele>200.26</ele>
        <time>2021-10-06T13:29:02Z</time>
      </trkpt>
      <trkpt lat="47.50293" lon="3.62382">
        <ele>200.32</ele>
        <time>2021-10-06T13:29:41Z</time>
      </trkpt>
      <trkpt lat="47.50319" lon="3.62423">
        <ele>200.38</ele>
        <time>2021-10-06T13:30:10Z</time>
      </trkpt>
      <trkpt lat="47.50345" lon="3.62453">
        <ele>201.3</ele>
        <time>2021-10-06T13:30:33Z</time>
      </trkpt>
      <trkpt lat="47.50362" lon="3.62481">
        <ele>200.49</ele>
        <time>2021-10-06T13:30:58Z</time>
      </trkpt>
      <trkpt lat="47.50382" lon="3.62511">
        <ele>202.88</ele>
        <time>2021-10-06T13:31:23Z</time>
      </trkpt>
      <trkpt lat="47.50401" lon="3.62546">
        <ele>205.48</ele>
        <time>2021-10-06T13:31:48Z</time>
      </trkpt>
      <trkpt lat="47.50422" lon="3.62577">
        <ele>207.07</ele>
        <time>2021-10-06T13:32:13Z</time>
      </trkpt>
      <trkpt lat="47.50442" lon="3.62612">
        <ele>207.89</ele>
        <time>2021-10-06T13:32:37Z</time>
      </trkpt>
      <trkpt lat="47.50458" lon="3.62639">
        <ele>208.41</ele>
        <time>2021-10-06T13:32:56Z</time>
      </trkpt>
      <trkpt lat="47.5048" lon="3.6267">
        <ele>209.14</ele>
        <time>2021-10-06T13:33:22Z</time>
      </trkpt>
      <trkpt lat="47.50505" lon="3.62697">
        <ele>209.59</ele>
        <time>2021-10-06T13:33:45Z</time>
      </trkpt>
      <trkpt lat="47.50532" lon="3.62728">
        <ele>210.92</ele>
        <time>2021-10-06T13:34:13Z</time>
      </trkpt>
      <trkpt lat="47.50559" lon="3.62755">
        <ele>211.52</ele>
        <time>2021-10-06T13:34:39Z</time>
      </trkpt>
      <trkpt lat="47.50583" lon="3.62776">
        <ele>211.98</ele>
        <time>2021-10-06T13:35:02Z</time>
      </trkpt>
      <trkpt lat="47.50612" lon="3.62789">
        <ele>213.14</ele>
        <time>2021-10-06T13:35:26Z</time>
      </trkpt>
      <trkpt lat="47.50646" lon="3.62804">
        <ele>213.9</ele>
        <time>2021-10-06T13:35:55Z</time>
      </trkpt>
      <trkpt lat="47.50673" lon="3.62811">
        <ele>214.46</ele>
        <time>2021-10-06T13:36:18Z</time>
      </trkpt>
      <trkpt lat="47.50698" lon="3.62813">
        <ele>214.57</ele>
        <time>2021-10-06T13:36:40Z</time>
      </trkpt>
      <trkpt lat="47.50726" lon="3.6282">
        <ele>214.28</ele>
        <time>2021-10-06T13:37:04Z</time>
      </trkpt>
      <trkpt lat="47.50754" lon="3.62822">
        <ele>213.87</ele>
        <time>2021-10-06T13:37:31Z</time>
      </trkpt>
      <trkpt lat="47.50765" lon="3.62824">
        <ele>214.33</ele>
        <time>2021-10-06T13:37:39Z</time>
      </trkpt>
      <trkpt lat="47.50766" lon="3.62825">
        <ele>214.33</ele>
        <time>2021-10-06T13:37:40Z</time>
      </trkpt>
      <trkpt lat="47.50768" lon="3.62825">
        <ele>214.33</ele>
        <time>2021-10-06T13:37:41Z</time>
      </trkpt>
      <trkpt lat="47.50769" lon="3.62825">
        <ele>214.33</ele>
        <time>2021-10-06T13:37:42Z</time>
      </trkpt>
      <trkpt lat="47.50771" lon="3.62825">
        <ele>214.33</ele>
        <time>2021-10-06T13:37:43Z</time>
      </trkpt>
      <trkpt lat="47.50804" lon="3.6283">
        <ele>214.44</ele>
        <time>2021-10-06T13:38:05Z</time>
      </trkpt>
      <trkpt lat="47.50829" lon="3.62835">
        <ele>213.7</ele>
        <time>2021-10-06T13:38:24Z</time>
      </trkpt>
      <trkpt lat="47.50855" lon="3.62842">
        <ele>215.24</ele>
        <time>2021-10-06T13:38:44Z</time>
      </trkpt>
      <trkpt lat="47.50887" lon="3.62845">
        <ele>214.26</ele>
        <time>2021-10-06T13:39:09Z</time>
      </trkpt>
      <trkpt lat="47.50922" lon="3.62848">
        <ele>213.25</ele>
        <time>2021-10-06T13:39:36Z</time>
      </trkpt>
      <trkpt lat="47.50954" lon="3.62852">
        <ele>212.46</ele>
        <time>2021-10-06T13:40:00Z</time>
      </trkpt>
      <trkpt lat="47.50972" lon="3.62855">
        <ele>211.67</ele>
        <time>2021-10-06T13:40:17Z</time>
      </trkpt>
      <trkpt lat="47.50993" lon="3.62857">
        <ele>211.03</ele>
        <time>2021-10-06T13:40:34Z</time>
      </trkpt>
      <trkpt lat="47.51018" lon="3.62856">
        <ele>209.86</ele>
        <time>2021-10-06T13:40:54Z</time>
      </trkpt>
      <trkpt lat="47.51037" lon="3.62855">
        <ele>208.95</ele>
        <time>2021-10-06T13:41:09Z</time>
      </trkpt>
      <trkpt lat="47.51054" lon="3.62857">
        <ele>209.35</ele>
        <time>2021-10-06T13:41:25Z</time>
      </trkpt>
      <trkpt lat="47.51071" lon="3.62854">
        <ele>208.7</ele>
        <time>2021-10-06T13:41:44Z</time>
      </trkpt>
      <trkpt lat="47.511" lon="3.62854">
        <ele>208.7</ele>
        <time>2021-10-06T13:42:06Z</time>
      </trkpt>
      <trkpt lat="47.51126" lon="3.62857">
        <ele>208.7</ele>
        <time>2021-10-06T13:42:27Z</time>
      </trkpt>
      <trkpt lat="47.5115" lon="3.62858">
        <ele>207.29</ele>
        <time>2021-10-06T13:42:43Z</time>
      </trkpt>
      <trkpt lat="47.51178" lon="3.6287">
        <ele>206.09</ele>
        <time>2021-10-06T13:43:03Z</time>
      </trkpt>
      <trkpt lat="47.51207" lon="3.62889">
        <ele>205.14</ele>
        <time>2021-10-06T13:43:26Z</time>
      </trkpt>
      <trkpt lat="47.51235" lon="3.62909">
        <ele>204.34</ele>
        <time>2021-10-06T13:43:48Z</time>
      </trkpt>
      <trkpt lat="47.51244" lon="3.62915">
        <ele>202.43</ele>
        <time>2021-10-06T13:43:55Z</time>
      </trkpt>
      <trkpt lat="47.51272" lon="3.62935">
        <ele>200.72</ele>
        <time>2021-10-06T13:44:18Z</time>
      </trkpt>
      <trkpt lat="47.51304" lon="3.62958">
        <ele>199.82</ele>
        <time>2021-10-06T13:44:46Z</time>
      </trkpt>
      <trkpt lat="47.51325" lon="3.62975">
        <ele>199.59</ele>
        <time>2021-10-06T13:45:06Z</time>
      </trkpt>
      <trkpt lat="47.51351" lon="3.62991">
        <ele>200.37</ele>
        <time>2021-10-06T13:45:29Z</time>
      </trkpt>
      <trkpt lat="47.51352" lon="3.62991">
        <ele>200.33</ele>
        <time>2021-10-06T13:45:30Z</time>
      </trkpt>
      <trkpt lat="47.51376" lon="3.62998">
        <ele>201.04</ele>
        <time>2021-10-06T13:45:49Z</time>
      </trkpt>
      <trkpt lat="47.51409" lon="3.63009">
        <ele>202.59</ele>
        <time>2021-10-06T13:46:15Z</time>
      </trkpt>
      <trkpt lat="47.5144" lon="3.6302">
        <ele>200.87</ele>
        <time>2021-10-06T13:46:41Z</time>
      </trkpt>
      <trkpt lat="47.51469" lon="3.63023">
        <ele>200.91</ele>
        <time>2021-10-06T13:47:03Z</time>
      </trkpt>
      <trkpt lat="47.515" lon="3.63019">
        <ele>199.16</ele>
        <time>2021-10-06T13:47:27Z</time>
      </trkpt>
      <trkpt lat="47.51531" lon="3.63012">
        <ele>196.92</ele>
        <time>2021-10-06T13:47:50Z</time>
      </trkpt>
      <trkpt lat="47.5156" lon="3.63002">
        <ele>195.98</ele>
        <time>2021-10-06T13:48:12Z</time>
      </trkpt>
      <trkpt lat="47.51578" lon="3.63">
        <ele>195.17</ele>
        <time>2021-10-06T13:48:27Z</time>
      </trkpt>
      <trkpt lat="47.51609" lon="3.62998">
        <ele>195.16</ele>
        <time>2021-10-06T13:48:49Z</time>
      </trkpt>
      <trkpt lat="47.51645" lon="3.63002">
        <ele>194.69</ele>
        <time>2021-10-06T13:49:16Z</time>
      </trkpt>
      <trkpt lat="47.5168" lon="3.63009">
        <ele>195.32</ele>
        <time>2021-10-06T13:49:42Z</time>
      </trkpt>
      <trkpt lat="47.51708" lon="3.63019">
        <ele>195.97</ele>
        <time>2021-10-06T13:50:04Z</time>
      </trkpt>
      <trkpt lat="47.51712" lon="3.63021">
        <ele>198.23</ele>
        <time>2021-10-06T13:50:08Z</time>
      </trkpt>
      <trkpt lat="47.5175" lon="3.63037">
        <ele>198.34</ele>
        <time>2021-10-06T13:50:37Z</time>
      </trkpt>
      <trkpt lat="47.51768" lon="3.63045">
        <ele>199.73</ele>
        <time>2021-10-06T13:50:51Z</time>
      </trkpt>
      <trkpt lat="47.5181" lon="3.63061">
        <ele>199.33</ele>
        <time>2021-10-06T13:51:24Z</time>
      </trkpt>
      <trkpt lat="47.51835" lon="3.6307">
        <ele>199.26</ele>
        <time>2021-10-06T13:51:43Z</time>
      </trkpt>
      <trkpt lat="47.51865" lon="3.63083">
        <ele>198.67</ele>
        <time>2021-10-06T13:52:06Z</time>
      </trkpt>
      <trkpt lat="47.51901" lon="3.631">
        <ele>198.3</ele>
        <time>2021-10-06T13:52:34Z</time>
      </trkpt>
      <trkpt lat="47.51937" lon="3.63115">
        <ele>197.68</ele>
        <time>2021-10-06T13:53:02Z</time>
      </trkpt>
      <trkpt lat="47.51963" lon="3.63124">
        <ele>197.3</ele>
        <time>2021-10-06T13:53:22Z</time>
      </trkpt>
      <trkpt lat="47.51998" lon="3.63138">
        <ele>196.44</ele>
        <time>2021-10-06T13:53:48Z</time>
      </trkpt>
      <trkpt lat="47.5203" lon="3.63151">
        <ele>195.38</ele>
        <time>2021-10-06T13:54:13Z</time>
      </trkpt>
      <trkpt lat="47.52062" lon="3.63163">
        <ele>194.75</ele>
        <time>2021-10-06T13:54:39Z</time>
      </trkpt>
      <trkpt lat="47.52101" lon="3.63163">
        <ele>193.35</ele>
        <time>2021-10-06T13:55:08Z</time>
      </trkpt>
      <trkpt lat="47.52132" lon="3.63159">
        <ele>192.45</ele>
        <time>2021-10-06T13:55:33Z</time>
      </trkpt>
      <trkpt lat="47.52136" lon="3.63158">
        <ele>193.86</ele>
        <time>2021-10-06T13:55:36Z</time>
      </trkpt>
      <trkpt lat="47.52168" lon="3.63151">
        <ele>193.86</ele>
        <time>2021-10-06T13:56:00Z</time>
      </trkpt>
      <trkpt lat="47.52204" lon="3.63138">
        <ele>193.73</ele>
        <time>2021-10-06T13:56:28Z</time>
      </trkpt>
      <trkpt lat="47.52243" lon="3.63121">
        <ele>193.73</ele>
        <time>2021-10-06T13:56:58Z</time>
      </trkpt>
      <trkpt lat="47.52276" lon="3.63106">
        <ele>193.46</ele>
        <time>2021-10-06T13:57:24Z</time>
      </trkpt>
      <trkpt lat="47.52305" lon="3.63088">
        <ele>193.21</ele>
        <time>2021-10-06T13:57:48Z</time>
      </trkpt>
      <trkpt lat="47.52328" lon="3.63068">
        <ele>193.08</ele>
        <time>2021-10-06T13:58:09Z</time>
      </trkpt>
      <trkpt lat="47.52358" lon="3.63037">
        <ele>193.44</ele>
        <time>2021-10-06T13:58:37Z</time>
      </trkpt>
      <trkpt lat="47.52388" lon="3.63005">
        <ele>193.51</ele>
        <time>2021-10-06T13:59:05Z</time>
      </trkpt>
      <trkpt lat="47.52418" lon="3.62974">
        <ele>192.57</ele>
        <time>2021-10-06T13:59:32Z</time>
      </trkpt>
      <trkpt lat="47.52456" lon="3.62934">
        <ele>193.21</ele>
        <time>2021-10-06T14:00:08Z</time>
      </trkpt>
      <trkpt lat="47.52484" lon="3.62905">
        <ele>192.54</ele>
        <time>2021-10-06T14:00:36Z</time>
      </trkpt>
      <trkpt lat="47.52509" lon="3.6289">
        <ele>192.94</ele>
        <time>2021-10-06T14:00:57Z</time>
      </trkpt>
      <trkpt lat="47.52533" lon="3.62883">
        <ele>193.79</ele>
        <time>2021-10-06T14:01:16Z</time>
      </trkpt>
      <trkpt lat="47.52556" lon="3.62883">
        <ele>193.91</ele>
        <time>2021-10-06T14:01:34Z</time>
      </trkpt>
      <trkpt lat="47.52569" lon="3.62886">
        <ele>193.16</ele>
        <time>2021-10-06T14:01:46Z</time>
      </trkpt>
      <trkpt lat="47.5257" lon="3.62886">
        <ele>193.16</ele>
        <time>2021-10-06T14:01:47Z</time>
      </trkpt>
      <trkpt lat="47.52571" lon="3.62886">
        <ele>193.35</ele>
        <time>2021-10-06T14:01:48Z</time>
      </trkpt>
      <trkpt lat="47.52572" lon="3.62887">
        <ele>193.51</ele>
        <time>2021-10-06T14:01:49Z</time>
      </trkpt>
      <trkpt lat="47.52573" lon="3.62887">
        <ele>193.7</ele>
        <time>2021-10-06T14:01:50Z</time>
      </trkpt>
      <trkpt lat="47.52574" lon="3.62887">
        <ele>193.79</ele>
        <time>2021-10-06T14:01:51Z</time>
      </trkpt>
      <trkpt lat="47.52575" lon="3.62887">
        <ele>193.84</ele>
        <time>2021-10-06T14:01:52Z</time>
      </trkpt>
      <trkpt lat="47.52608" lon="3.62897">
        <ele>192.95</ele>
        <time>2021-10-06T14:02:17Z</time>
      </trkpt>
      <trkpt lat="47.52643" lon="3.62909">
        <ele>192.63</ele>
        <time>2021-10-06T14:02:44Z</time>
      </trkpt>
      <trkpt lat="47.52678" lon="3.6292">
        <ele>192.86</ele>
        <time>2021-10-06T14:03:12Z</time>
      </trkpt>
      <trkpt lat="47.5272" lon="3.62927">
        <ele>191.75</ele>
        <time>2021-10-06T14:03:44Z</time>
      </trkpt>
      <trkpt lat="47.52764" lon="3.62936">
        <ele>189.35</ele>
        <time>2021-10-06T14:04:17Z</time>
      </trkpt>
      <trkpt lat="47.52799" lon="3.62944">
        <ele>189.93</ele>
        <time>2021-10-06T14:04:44Z</time>
      </trkpt>
      <trkpt lat="47.52824" lon="3.62951">
        <ele>187.92</ele>
        <time>2021-10-06T14:05:03Z</time>
      </trkpt>
      <trkpt lat="47.52826" lon="3.62952">
        <ele>188.02</ele>
        <time>2021-10-06T14:05:05Z</time>
      </trkpt>
      <trkpt lat="47.52827" lon="3.62952">
        <ele>187.99</ele>
        <time>2021-10-06T14:05:06Z</time>
      </trkpt>
      <trkpt lat="47.52828" lon="3.62952">
        <ele>187.8</ele>
        <time>2021-10-06T14:05:07Z</time>
      </trkpt>
      <trkpt lat="47.52842" lon="3.62957">
        <ele>184.69</ele>
        <time>2021-10-06T14:05:18Z</time>
      </trkpt>
      <trkpt lat="47.52848" lon="3.62959">
        <ele>186.53</ele>
        <time>2021-10-06T14:05:23Z</time>
      </trkpt>
      <trkpt lat="47.52858" lon="3.62965">
        <ele>182.97</ele>
        <time>2021-10-06T14:05:31Z</time>
      </trkpt>
      <trkpt lat="47.52866" lon="3.62969">
        <ele>185.52</ele>
        <time>2021-10-06T14:05:37Z</time>
      </trkpt>
      <trkpt lat="47.52879" lon="3.62977">
        <ele>186.38</ele>
        <time>2021-10-06T14:05:48Z</time>
      </trkpt>
      <trkpt lat="47.52886" lon="3.62974">
        <ele>182.94</ele>
        <time>2021-10-06T14:05:55Z</time>
      </trkpt>
    </trkseg>
  </trk>
</gpx>